sensor_id;sensor_type;location;lat;lon;timestamp;pressure;altitude;pressure_sealevel;temperature;humidity
65134;BME280;51713;40.700;-111.794;2022-07-21T00:00:17;84810.70;;;30.07;23.63
65134;BME280;51713;40.700;-111.794;2022-07-21T00:02:46;84809.53;;;30.11;23.59
65134;BME280;51713;40.700;-111.794;2022-07-21T00:05:15;84803.20;;;30.19;23.55
65134;BME280;51713;40.700;-111.794;2022-07-21T00:07:44;84802.55;;;30.23;23.54
65134;BME280;51713;40.700;-111.794;2022-07-21T00:10:13;84802.83;;;30.31;23.46
65134;BME280;51713;40.700;-111.794;2022-07-21T00:12:42;84803.37;;;30.25;23.61
65134;BME280;51713;40.700;-111.794;2022-07-21T00:15:13;84800.43;;;30.76;23.03
65134;BME280;51713;40.700;-111.794;2022-07-21T00:17:42;84793.82;;;30.44;23.09
65134;BME280;51713;40.700;-111.794;2022-07-21T00:20:12;84793.23;;;30.61;23.19
65134;BME280;51713;40.700;-111.794;2022-07-21T00:22:40;84792.71;;;30.75;23.43
65134;BME280;51713;40.700;-111.794;2022-07-21T00:25:10;84787.82;;;30.76;23.68
65134;BME280;51713;40.700;-111.794;2022-07-21T00:27:39;84786.93;;;30.20;23.56
65134;BME280;51713;40.700;-111.794;2022-07-21T00:30:09;84788.60;;;30.94;23.23
65134;BME280;51713;40.700;-111.794;2022-07-21T00:32:37;84791.00;;;31.04;23.22
65134;BME280;51713;40.700;-111.794;2022-07-21T00:35:07;84790.87;;;30.53;23.75
65134;BME280;51713;40.700;-111.794;2022-07-21T00:37:36;84786.15;;;30.53;23.73
65134;BME280;51713;40.700;-111.794;2022-07-21T00:40:06;84781.93;;;30.74;23.80
65134;BME280;51713;40.700;-111.794;2022-07-21T00:42:35;84777.51;;;30.25;23.82
65134;BME280;51713;40.700;-111.794;2022-07-21T00:45:05;84779.37;;;30.76;23.17
65134;BME280;51713;40.700;-111.794;2022-07-21T00:47:34;84773.46;;;30.66;22.81
65134;BME280;51713;40.700;-111.794;2022-07-21T00:50:07;84771.29;;;30.59;22.52
65134;BME280;51713;40.700;-111.794;2022-07-21T00:52:35;84771.10;;;30.74;22.28
65134;BME280;51713;40.700;-111.794;2022-07-21T00:55:04;84768.02;;;30.84;22.07
65134;BME280;51713;40.700;-111.794;2022-07-21T00:57:32;84764.09;;;30.81;21.75
65134;BME280;51713;40.700;-111.794;2022-07-21T01:00:01;84763.33;;;30.08;21.71
65134;BME280;51713;40.700;-111.794;2022-07-21T01:02:29;84759.55;;;30.53;21.58
65134;BME280;51713;40.700;-111.794;2022-07-21T01:04:57;84758.94;;;30.42;21.47
65134;BME280;51713;40.700;-111.794;2022-07-21T01:07:24;84761.05;;;30.09;21.49
65134;BME280;51713;40.700;-111.794;2022-07-21T01:09:52;84761.29;;;30.01;21.40
65134;BME280;51713;40.700;-111.794;2022-07-21T01:12:20;84761.29;;;30.06;21.12
65134;BME280;51713;40.700;-111.794;2022-07-21T01:14:49;84759.01;;;30.10;20.93
65134;BME280;51713;40.700;-111.794;2022-07-21T01:17:16;84759.76;;;30.08;21.16
65134;BME280;51713;40.700;-111.794;2022-07-21T01:19:45;84755.64;;;29.89;21.06
65134;BME280;51713;40.700;-111.794;2022-07-21T01:22:14;84753.91;;;29.95;20.98
65134;BME280;51713;40.700;-111.794;2022-07-21T01:24:42;84754.54;;;29.80;20.86
65134;BME280;51713;40.700;-111.794;2022-07-21T01:27:09;84753.60;;;30.03;20.59
65134;BME280;51713;40.700;-111.794;2022-07-21T01:29:38;84752.23;;;29.60;20.86
65134;BME280;51713;40.700;-111.794;2022-07-21T01:32:06;84751.82;;;29.52;20.81
65134;BME280;51713;40.700;-111.794;2022-07-21T01:34:34;84752.28;;;29.19;21.00
65134;BME280;51713;40.700;-111.794;2022-07-21T01:37:08;84751.29;;;29.35;20.82
65134;BME280;51713;40.700;-111.794;2022-07-21T01:39:36;84751.37;;;29.36;20.72
65134;BME280;51713;40.700;-111.794;2022-07-21T01:42:05;84749.71;;;29.00;20.92
65134;BME280;51713;40.700;-111.794;2022-07-21T01:44:34;84749.16;;;29.29;20.67
65134;BME280;51713;40.700;-111.794;2022-07-21T01:47:02;84751.22;;;29.77;20.26
65134;BME280;51713;40.700;-111.794;2022-07-21T01:49:31;84749.89;;;29.63;20.33
65134;BME280;51713;40.700;-111.794;2022-07-21T01:51:58;84747.94;;;29.44;20.36
65134;BME280;51713;40.700;-111.794;2022-07-21T01:54:26;84750.54;;;29.44;20.36
65134;BME280;51713;40.700;-111.794;2022-07-21T01:56:54;84749.07;;;29.17;20.48
65134;BME280;51713;40.700;-111.794;2022-07-21T01:59:22;84750.06;;;29.15;20.41
65134;BME280;51713;40.700;-111.794;2022-07-21T02:01:50;84749.99;;;28.84;20.62
65134;BME280;51713;40.700;-111.794;2022-07-21T02:04:19;84748.09;;;29.12;20.77
65134;BME280;51713;40.700;-111.794;2022-07-21T02:06:47;84747.37;;;28.95;20.51
65134;BME280;51713;40.700;-111.794;2022-07-21T02:09:16;84747.12;;;28.89;20.63
65134;BME280;51713;40.700;-111.794;2022-07-21T02:11:43;84744.24;;;29.25;20.50
65134;BME280;51713;40.700;-111.794;2022-07-21T02:14:11;84744.06;;;28.78;20.63
65134;BME280;51713;40.700;-111.794;2022-07-21T02:16:40;84740.67;;;28.94;20.68
65134;BME280;51713;40.700;-111.794;2022-07-21T02:19:09;84742.40;;;29.24;20.45
65134;BME280;51713;40.700;-111.794;2022-07-21T02:21:37;84741.17;;;28.78;20.54
65134;BME280;51713;40.700;-111.794;2022-07-21T02:24:06;84743.13;;;28.95;20.37
65134;BME280;51713;40.700;-111.794;2022-07-21T02:26:34;84745.80;;;28.88;20.40
65134;BME280;51713;40.700;-111.794;2022-07-21T02:29:03;84747.89;;;28.93;20.45
65134;BME280;51713;40.700;-111.794;2022-07-21T02:31:31;84749.37;;;28.77;21.03
65134;BME280;51713;40.700;-111.794;2022-07-21T02:34:00;84751.57;;;28.56;21.32
65134;BME280;51713;40.700;-111.794;2022-07-21T02:36:28;84751.25;;;28.81;21.20
65134;BME280;51713;40.700;-111.794;2022-07-21T02:38:56;84754.14;;;28.89;21.30
65134;BME280;51713;40.700;-111.794;2022-07-21T02:41:25;84756.82;;;29.08;21.24
65134;BME280;51713;40.700;-111.794;2022-07-21T02:43:53;84758.93;;;28.50;21.57
65134;BME280;51713;40.700;-111.794;2022-07-21T02:46:21;84764.28;;;28.93;21.53
65134;BME280;51713;40.700;-111.794;2022-07-21T02:48:49;84762.93;;;29.10;21.49
65134;BME280;51713;40.700;-111.794;2022-07-21T02:51:18;84763.15;;;29.09;21.57
65134;BME280;51713;40.700;-111.794;2022-07-21T02:53:46;84761.14;;;28.68;21.76
65134;BME280;51713;40.700;-111.794;2022-07-21T02:56:15;84762.92;;;29.20;21.65
65134;BME280;51713;40.700;-111.794;2022-07-21T02:58:43;84764.93;;;28.66;21.75
65134;BME280;51713;40.700;-111.794;2022-07-21T03:01:11;84765.85;;;29.21;21.74
65134;BME280;51713;40.700;-111.794;2022-07-21T03:03:40;84770.73;;;28.93;22.04
65134;BME280;51713;40.700;-111.794;2022-07-21T03:06:08;84775.57;;;29.13;21.98
65134;BME280;51713;40.700;-111.794;2022-07-21T03:08:37;84777.79;;;29.52;21.97
65134;BME280;51713;40.700;-111.794;2022-07-21T03:11:05;84776.76;;;29.36;22.22
65134;BME280;51713;40.700;-111.794;2022-07-21T03:13:34;84776.21;;;28.78;22.55
65134;BME280;51713;40.700;-111.794;2022-07-21T03:16:02;84778.28;;;29.20;22.50
65134;BME280;51713;40.700;-111.794;2022-07-21T03:18:30;84782.68;;;29.44;22.44
65134;BME280;51713;40.700;-111.794;2022-07-21T03:20:59;84786.07;;;29.39;22.37
65134;BME280;51713;40.700;-111.794;2022-07-21T03:23:27;84786.30;;;29.65;22.47
65134;BME280;51713;40.700;-111.794;2022-07-21T03:25:54;84787.23;;;29.56;22.60
65134;BME280;51713;40.700;-111.794;2022-07-21T03:28:22;84790.50;;;29.51;22.55
65134;BME280;51713;40.700;-111.794;2022-07-21T03:30:51;84794.22;;;29.28;22.63
65134;BME280;51713;40.700;-111.794;2022-07-21T03:33:19;84795.17;;;29.34;22.67
65134;BME280;51713;40.700;-111.794;2022-07-21T03:35:47;84796.77;;;29.46;22.50
65134;BME280;51713;40.700;-111.794;2022-07-21T03:38:16;84800.23;;;29.51;21.92
65134;BME280;51713;40.700;-111.794;2022-07-21T03:40:44;84804.49;;;29.38;21.89
65134;BME280;51713;40.700;-111.794;2022-07-21T03:43:12;84806.89;;;29.19;21.69
65134;BME280;51713;40.700;-111.794;2022-07-21T03:45:40;84811.88;;;29.36;21.50
65134;BME280;51713;40.700;-111.794;2022-07-21T03:48:09;84811.80;;;29.38;21.37
65134;BME280;51713;40.700;-111.794;2022-07-21T03:50:39;84815.38;;;29.20;21.27
65134;BME280;51713;40.700;-111.794;2022-07-21T03:53:08;84817.62;;;29.24;21.36
65134;BME280;51713;40.700;-111.794;2022-07-21T03:55:37;84815.25;;;29.13;21.15
65134;BME280;51713;40.700;-111.794;2022-07-21T03:58:06;84817.21;;;29.07;21.27
65134;BME280;51713;40.700;-111.794;2022-07-21T04:00:37;84815.08;;;28.88;21.33
65134;BME280;51713;40.700;-111.794;2022-07-21T04:03:06;84815.89;;;28.75;21.70
65134;BME280;51713;40.700;-111.794;2022-07-21T04:05:37;84812.48;;;28.80;21.92
65134;BME280;51713;40.700;-111.794;2022-07-21T04:08:06;84815.41;;;28.89;21.98
65134;BME280;51713;40.700;-111.794;2022-07-21T04:10:37;84814.25;;;28.37;22.32
65134;BME280;51713;40.700;-111.794;2022-07-21T04:13:07;84816.35;;;28.70;22.40
65134;BME280;51713;40.700;-111.794;2022-07-21T04:15:36;84816.52;;;29.01;22.06
65134;BME280;51713;40.700;-111.794;2022-07-21T04:18:05;84816.22;;;29.09;22.22
65134;BME280;51713;40.700;-111.794;2022-07-21T04:20:34;84812.28;;;28.55;22.11
65134;BME280;51713;40.700;-111.794;2022-07-21T04:23:03;84809.04;;;29.33;21.63
65134;BME280;51713;40.700;-111.794;2022-07-21T04:25:32;84809.90;;;28.93;21.53
65134;BME280;51713;40.700;-111.794;2022-07-21T04:28:00;84806.98;;;28.87;21.44
65134;BME280;51713;40.700;-111.794;2022-07-21T04:30:28;84805.35;;;29.31;20.97
65134;BME280;51713;40.700;-111.794;2022-07-21T04:32:57;84803.31;;;28.92;21.34
65134;BME280;51713;40.700;-111.794;2022-07-21T04:35:25;84803.42;;;29.01;20.83
65134;BME280;51713;40.700;-111.794;2022-07-21T04:37:54;84802.06;;;28.75;20.92
65134;BME280;51713;40.700;-111.794;2022-07-21T04:40:22;84799.07;;;28.36;21.00
65134;BME280;51713;40.700;-111.794;2022-07-21T04:42:51;84793.55;;;28.35;20.97
65134;BME280;51713;40.700;-111.794;2022-07-21T04:45:19;84790.96;;;28.41;20.84
65134;BME280;51713;40.700;-111.794;2022-07-21T04:47:49;84789.99;;;29.01;20.64
65134;BME280;51713;40.700;-111.794;2022-07-21T04:50:20;84784.71;;;28.33;20.81
65134;BME280;51713;40.700;-111.794;2022-07-21T04:52:49;84783.42;;;29.16;20.34
65134;BME280;51713;40.700;-111.794;2022-07-21T04:55:18;84778.16;;;28.91;20.22
65134;BME280;51713;40.700;-111.794;2022-07-21T04:57:49;84780.53;;;28.78;20.24
65134;BME280;51713;40.700;-111.794;2022-07-21T05:00:19;84782.70;;;28.08;20.64
65134;BME280;51713;40.700;-111.794;2022-07-21T05:02:48;84785.42;;;28.22;20.65
65134;BME280;51713;40.700;-111.794;2022-07-21T05:05:17;84786.87;;;28.39;20.28
65134;BME280;51713;40.700;-111.794;2022-07-21T05:07:45;84781.19;;;28.08;20.43
65134;BME280;51713;40.700;-111.794;2022-07-21T05:10:14;84780.82;;;27.83;20.69
65134;BME280;51713;40.700;-111.794;2022-07-21T05:12:43;84782.54;;;28.21;20.45
65134;BME280;51713;40.700;-111.794;2022-07-21T05:15:13;84781.38;;;28.24;20.37
65134;BME280;51713;40.700;-111.794;2022-07-21T05:17:41;84781.28;;;28.67;20.07
65134;BME280;51713;40.700;-111.794;2022-07-21T05:20:11;84784.34;;;27.43;20.42
65134;BME280;51713;40.700;-111.794;2022-07-21T05:22:40;84781.38;;;27.90;20.44
65134;BME280;51713;40.700;-111.794;2022-07-21T05:25:09;84780.37;;;27.73;20.23
65134;BME280;51713;40.700;-111.794;2022-07-21T05:27:37;84777.84;;;27.83;20.34
65134;BME280;51713;40.700;-111.794;2022-07-21T05:30:06;84776.80;;;27.54;20.51
65134;BME280;51713;40.700;-111.794;2022-07-21T05:32:35;84772.28;;;27.33;20.50
65134;BME280;51713;40.700;-111.794;2022-07-21T05:35:04;84772.58;;;27.69;20.47
65134;BME280;51713;40.700;-111.794;2022-07-21T05:37:33;84772.68;;;27.53;20.43
65134;BME280;51713;40.700;-111.794;2022-07-21T05:40:02;84769.31;;;27.52;20.51
65134;BME280;51713;40.700;-111.794;2022-07-21T05:42:31;84768.95;;;27.34;20.45
65134;BME280;51713;40.700;-111.794;2022-07-21T05:44:58;84768.57;;;27.33;20.41
65134;BME280;51713;40.700;-111.794;2022-07-21T05:47:26;84771.25;;;27.60;20.25
65134;BME280;51713;40.700;-111.794;2022-07-21T05:49:54;84768.18;;;27.63;20.14
65134;BME280;51713;40.700;-111.794;2022-07-21T05:52:22;84764.41;;;27.77;20.07
65134;BME280;51713;40.700;-111.794;2022-07-21T05:54:55;84762.04;;;27.90;20.14
65134;BME280;51713;40.700;-111.794;2022-07-21T05:57:23;84761.22;;;27.38;20.73
65134;BME280;51713;40.700;-111.794;2022-07-21T05:59:51;84761.74;;;27.63;20.91
65134;BME280;51713;40.700;-111.794;2022-07-21T06:02:20;84759.89;;;27.20;21.04
65134;BME280;51713;40.700;-111.794;2022-07-21T06:04:49;84758.41;;;27.58;21.06
65134;BME280;51713;40.700;-111.794;2022-07-21T06:07:16;84757.49;;;27.62;21.10
65134;BME280;51713;40.700;-111.794;2022-07-21T06:09:44;84759.92;;;27.54;21.26
65134;BME280;51713;40.700;-111.794;2022-07-21T06:12:12;84759.10;;;27.11;21.58
65134;BME280;51713;40.700;-111.794;2022-07-21T06:14:40;84757.34;;;27.89;21.17
65134;BME280;51713;40.700;-111.794;2022-07-21T06:17:08;84750.82;;;27.80;20.97
65134;BME280;51713;40.700;-111.794;2022-07-21T06:19:36;84753.14;;;28.02;20.69
65134;BME280;51713;40.700;-111.794;2022-07-21T06:22:05;84751.15;;;27.69;20.74
65134;BME280;51713;40.700;-111.794;2022-07-21T06:24:33;84750.20;;;28.50;20.46
65134;BME280;51713;40.700;-111.794;2022-07-21T06:27:03;84748.32;;;27.96;20.58
65134;BME280;51713;40.700;-111.794;2022-07-21T06:29:31;84748.02;;;27.95;20.34
65134;BME280;51713;40.700;-111.794;2022-07-21T06:32:00;84748.95;;;27.74;20.34
65134;BME280;51713;40.700;-111.794;2022-07-21T06:34:28;84751.97;;;28.19;20.28
65134;BME280;51713;40.700;-111.794;2022-07-21T06:36:56;84757.66;;;27.59;20.78
65134;BME280;51713;40.700;-111.794;2022-07-21T06:39:24;84754.11;;;27.57;20.86
65134;BME280;51713;40.700;-111.794;2022-07-21T06:41:51;84755.48;;;27.31;21.12
65134;BME280;51713;40.700;-111.794;2022-07-21T06:44:19;84758.39;;;26.95;21.48
65134;BME280;51713;40.700;-111.794;2022-07-21T06:46:48;84757.85;;;27.59;21.41
65134;BME280;51713;40.700;-111.794;2022-07-21T06:49:16;84762.66;;;27.50;21.58
65134;BME280;51713;40.700;-111.794;2022-07-21T06:51:44;84756.54;;;27.64;21.57
65134;BME280;51713;40.700;-111.794;2022-07-21T06:54:12;84760.87;;;27.67;21.43
65134;BME280;51713;40.700;-111.794;2022-07-21T06:56:40;84764.18;;;27.65;21.35
65134;BME280;51713;40.700;-111.794;2022-07-21T06:59:08;84764.15;;;27.55;21.09
65134;BME280;51713;40.700;-111.794;2022-07-21T07:01:36;84766.50;;;27.82;20.88
65134;BME280;51713;40.700;-111.794;2022-07-21T07:04:09;84768.39;;;27.30;21.03
65134;BME280;51713;40.700;-111.794;2022-07-21T07:06:37;84770.37;;;27.41;20.85
65134;BME280;51713;40.700;-111.794;2022-07-21T07:09:05;84775.06;;;27.71;20.77
65134;BME280;51713;40.700;-111.794;2022-07-21T07:11:34;84775.30;;;27.63;20.98
65134;BME280;51713;40.700;-111.794;2022-07-21T07:14:02;84778.50;;;27.42;21.49
65134;BME280;51713;40.700;-111.794;2022-07-21T07:16:31;84779.80;;;27.09;21.80
65134;BME280;51713;40.700;-111.794;2022-07-21T07:18:59;84777.61;;;26.86;21.93
65134;BME280;51713;40.700;-111.794;2022-07-21T07:21:27;84778.84;;;26.76;22.10
65134;BME280;51713;40.700;-111.794;2022-07-21T07:23:57;84778.49;;;26.92;22.02
65134;BME280;51713;40.700;-111.794;2022-07-21T07:26:25;84770.60;;;26.96;22.11
65134;BME280;51713;40.700;-111.794;2022-07-21T07:28:53;84771.01;;;26.82;22.26
65134;BME280;51713;40.700;-111.794;2022-07-21T07:31:20;84776.99;;;27.28;21.80
65134;BME280;51713;40.700;-111.794;2022-07-21T07:33:48;84779.19;;;27.50;21.71
65134;BME280;51713;40.700;-111.794;2022-07-21T07:36:16;84768.34;;;27.95;21.21
65134;BME280;51713;40.700;-111.794;2022-07-21T07:38:44;84776.36;;;27.44;21.25
65134;BME280;51713;40.700;-111.794;2022-07-21T07:41:12;84772.67;;;27.31;21.16
65134;BME280;51713;40.700;-111.794;2022-07-21T07:43:41;84764.34;;;27.39;20.93
65134;BME280;51713;40.700;-111.794;2022-07-21T07:46:09;84760.81;;;27.77;20.87
65134;BME280;51713;40.700;-111.794;2022-07-21T07:48:37;84758.08;;;27.49;20.78
65134;BME280;51713;40.700;-111.794;2022-07-21T07:51:05;84763.17;;;27.08;21.02
65134;BME280;51713;40.700;-111.794;2022-07-21T07:53:35;84757.20;;;26.98;21.50
65134;BME280;51713;40.700;-111.794;2022-07-21T07:56:03;84758.52;;;26.89;21.74
65134;BME280;51713;40.700;-111.794;2022-07-21T07:58:32;84752.15;;;27.10;21.67
65134;BME280;51713;40.700;-111.794;2022-07-21T08:01:00;84748.56;;;26.51;22.16
65134;BME280;51713;40.700;-111.794;2022-07-21T08:03:29;84748.26;;;26.65;22.12
65134;BME280;51713;40.700;-111.794;2022-07-21T08:05:58;84745.78;;;26.76;22.11
65134;BME280;51713;40.700;-111.794;2022-07-21T08:08:27;84747.33;;;26.76;22.19
65134;BME280;51713;40.700;-111.794;2022-07-21T08:10:55;84747.45;;;26.77;22.06
65134;BME280;51713;40.700;-111.794;2022-07-21T08:13:23;84752.80;;;27.17;22.00
65134;BME280;51713;40.700;-111.794;2022-07-21T08:15:52;84755.20;;;27.18;22.00
65134;BME280;51713;40.700;-111.794;2022-07-21T08:18:21;84758.33;;;26.72;22.07
65134;BME280;51713;40.700;-111.794;2022-07-21T08:20:49;84761.23;;;27.00;22.07
65134;BME280;51713;40.700;-111.794;2022-07-21T08:23:18;84764.45;;;27.28;21.98
65134;BME280;51713;40.700;-111.794;2022-07-21T08:25:47;84762.78;;;27.00;21.92
65134;BME280;51713;40.700;-111.794;2022-07-21T08:28:16;84767.46;;;27.28;21.52
65134;BME280;51713;40.700;-111.794;2022-07-21T08:30:44;84765.15;;;26.75;21.64
65134;BME280;51713;40.700;-111.794;2022-07-21T08:33:13;84767.69;;;27.09;21.35
65134;BME280;51713;40.700;-111.794;2022-07-21T08:35:41;84770.43;;;27.55;21.63
65134;BME280;51713;40.700;-111.794;2022-07-21T08:38:11;84771.49;;;26.58;22.18
65134;BME280;51713;40.700;-111.794;2022-07-21T08:40:41;84767.84;;;26.57;22.27
65134;BME280;51713;40.700;-111.794;2022-07-21T08:43:10;84770.68;;;26.65;22.28
65134;BME280;51713;40.700;-111.794;2022-07-21T08:45:39;84773.14;;;26.80;22.22
65134;BME280;51713;40.700;-111.794;2022-07-21T08:48:08;84767.72;;;26.75;22.33
65134;BME280;51713;40.700;-111.794;2022-07-21T08:50:39;84770.00;;;26.68;22.43
65134;BME280;51713;40.700;-111.794;2022-07-21T08:53:07;84766.79;;;26.70;22.51
65134;BME280;51713;40.700;-111.794;2022-07-21T08:55:37;84764.40;;;26.87;22.40
65134;BME280;51713;40.700;-111.794;2022-07-21T08:58:09;84763.31;;;26.92;22.27
65134;BME280;51713;40.700;-111.794;2022-07-21T09:00:39;84763.65;;;27.08;22.34
65134;BME280;51713;40.700;-111.794;2022-07-21T09:03:11;84760.02;;;27.40;21.92
65134;BME280;51713;40.700;-111.794;2022-07-21T09:05:40;84761.63;;;27.21;21.81
65134;BME280;51713;40.700;-111.794;2022-07-21T09:08:09;84764.59;;;26.93;21.83
65134;BME280;51713;40.700;-111.794;2022-07-21T09:10:37;84757.92;;;26.65;21.90
65134;BME280;51713;40.700;-111.794;2022-07-21T09:13:07;84753.30;;;26.30;22.46
65134;BME280;51713;40.700;-111.794;2022-07-21T09:15:35;84757.95;;;26.70;22.26
65134;BME280;51713;40.700;-111.794;2022-07-21T09:18:09;84760.92;;;26.63;22.36
65134;BME280;51713;40.700;-111.794;2022-07-21T09:20:46;84761.98;;;26.64;22.42
65134;BME280;51713;40.700;-111.794;2022-07-21T09:23:16;84763.73;;;26.74;22.39
65134;BME280;51713;40.700;-111.794;2022-07-21T09:25:46;84764.79;;;26.57;22.41
65134;BME280;51713;40.700;-111.794;2022-07-21T09:28:17;84762.64;;;26.59;22.59
65134;BME280;51713;40.700;-111.794;2022-07-21T09:30:57;84761.07;;;26.77;22.53
65134;BME280;51713;40.700;-111.794;2022-07-21T09:33:29;84758.57;;;26.81;22.54
65134;BME280;51713;40.700;-111.794;2022-07-21T09:36:00;84763.50;;;26.79;22.59
65134;BME280;51713;40.700;-111.794;2022-07-21T09:38:30;84758.91;;;26.73;22.67
65134;BME280;51713;40.700;-111.794;2022-07-21T09:41:06;84764.47;;;26.88;22.75
65134;BME280;51713;40.700;-111.794;2022-07-21T09:43:38;84753.66;;;26.99;22.40
65134;BME280;51713;40.700;-111.794;2022-07-21T09:46:08;84749.84;;;26.72;22.19
65134;BME280;51713;40.700;-111.794;2022-07-21T09:48:39;84744.60;;;26.88;22.02
65134;BME280;51713;40.700;-111.794;2022-07-21T09:51:40;84745.43;;;26.72;21.95
65134;BME280;51713;40.700;-111.794;2022-07-21T09:54:10;84738.23;;;26.35;22.19
65134;BME280;51713;40.700;-111.794;2022-07-21T09:56:41;84734.36;;;26.29;22.60
65134;BME280;51713;40.700;-111.794;2022-07-21T09:59:11;84732.82;;;26.78;22.27
65134;BME280;51713;40.700;-111.794;2022-07-21T10:01:41;84728.55;;;26.30;22.55
65134;BME280;51713;40.700;-111.794;2022-07-21T10:04:09;84728.00;;;26.74;22.39
65134;BME280;51713;40.700;-111.794;2022-07-21T10:06:38;84728.65;;;26.58;22.57
65134;BME280;51713;40.700;-111.794;2022-07-21T10:09:09;84727.42;;;26.76;22.29
65134;BME280;51713;40.700;-111.794;2022-07-21T10:11:40;84724.33;;;26.60;22.62
65134;BME280;51713;40.700;-111.794;2022-07-21T10:14:10;84723.61;;;26.70;22.58
65134;BME280;51713;40.700;-111.794;2022-07-21T10:16:38;84727.24;;;26.58;22.72
65134;BME280;51713;40.700;-111.794;2022-07-21T10:19:13;84724.23;;;26.72;22.66
65134;BME280;51713;40.700;-111.794;2022-07-21T10:21:48;84724.43;;;26.95;22.55
65134;BME280;51713;40.700;-111.794;2022-07-21T10:24:20;84729.28;;;26.49;22.53
65134;BME280;51713;40.700;-111.794;2022-07-21T10:27:06;84730.60;;;26.62;22.65
65134;BME280;51713;40.700;-111.794;2022-07-21T10:29:52;84737.64;;;26.75;22.51
65134;BME280;51713;40.700;-111.794;2022-07-21T10:32:24;84745.16;;;26.81;22.20
65134;BME280;51713;40.700;-111.794;2022-07-21T10:34:53;84747.91;;;26.75;22.03
65134;BME280;51713;40.700;-111.794;2022-07-21T10:37:53;84753.72;;;26.87;21.80
65134;BME280;51713;40.700;-111.794;2022-07-21T10:40:39;84759.52;;;26.53;22.41
65134;BME280;51713;40.700;-111.794;2022-07-21T10:43:42;84750.85;;;26.81;22.29
65134;BME280;51713;40.700;-111.794;2022-07-21T10:46:59;84751.62;;;26.46;22.60
65134;BME280;51713;40.700;-111.794;2022-07-21T10:49:44;84751.38;;;26.24;22.88
65134;BME280;51713;40.700;-111.794;2022-07-21T10:53:18;84751.73;;;26.48;22.76
65134;BME280;51713;40.700;-111.794;2022-07-21T10:55:50;84757.73;;;26.47;22.80
65134;BME280;51713;40.700;-111.794;2022-07-21T10:58:25;84761.82;;;26.31;22.92
65134;BME280;51713;40.700;-111.794;2022-07-21T11:00:55;84765.57;;;26.21;22.90
65134;BME280;51713;40.700;-111.794;2022-07-21T11:03:26;84767.39;;;26.46;22.93
65134;BME280;51713;40.700;-111.794;2022-07-21T11:06:15;84771.99;;;26.52;23.27
65134;BME280;51713;40.700;-111.794;2022-07-21T11:08:45;84775.67;;;26.37;23.15
65134;BME280;51713;40.700;-111.794;2022-07-21T11:11:15;84775.29;;;26.61;22.97
65134;BME280;51713;40.700;-111.794;2022-07-21T11:14:17;84778.41;;;26.90;23.00
65134;BME280;51713;40.700;-111.794;2022-07-21T11:16:58;84771.36;;;26.21;23.37
65134;BME280;51713;40.700;-111.794;2022-07-21T11:19:29;84774.46;;;26.21;23.40
65134;BME280;51713;40.700;-111.794;2022-07-21T11:21:59;84779.18;;;26.35;23.35
65134;BME280;51713;40.700;-111.794;2022-07-21T11:24:28;84783.65;;;26.59;22.99
65134;BME280;51713;40.700;-111.794;2022-07-21T11:26:57;84782.36;;;26.80;22.68
65134;BME280;51713;40.700;-111.794;2022-07-21T11:29:26;84779.84;;;26.82;22.40
65134;BME280;51713;40.700;-111.794;2022-07-21T11:31:55;84781.74;;;26.98;22.08
65134;BME280;51713;40.700;-111.794;2022-07-21T11:34:24;84783.23;;;27.25;21.88
65134;BME280;51713;40.700;-111.794;2022-07-21T11:37:01;84783.12;;;26.54;22.65
65134;BME280;51713;40.700;-111.794;2022-07-21T11:39:30;84787.75;;;26.67;22.82
65134;BME280;51713;40.700;-111.794;2022-07-21T11:42:04;84786.23;;;26.24;23.01
65134;BME280;51713;40.700;-111.794;2022-07-21T11:44:34;84784.92;;;26.35;23.19
65134;BME280;51713;40.700;-111.794;2022-07-21T11:47:05;84784.18;;;26.26;23.14
65134;BME280;51713;40.700;-111.794;2022-07-21T11:49:34;84781.84;;;26.15;23.25
65134;BME280;51713;40.700;-111.794;2022-07-21T11:52:04;84780.36;;;26.42;23.15
65134;BME280;51713;40.700;-111.794;2022-07-21T11:54:35;84784.36;;;26.34;23.15
65134;BME280;51713;40.700;-111.794;2022-07-21T11:57:06;84786.06;;;26.57;23.38
65134;BME280;51713;40.700;-111.794;2022-07-21T11:59:36;84788.61;;;26.38;23.11
65134;BME280;51713;40.700;-111.794;2022-07-21T12:02:06;84787.12;;;26.74;23.13
65134;BME280;51713;40.700;-111.794;2022-07-21T12:04:39;84788.07;;;26.54;23.11
65134;BME280;51713;40.700;-111.794;2022-07-21T12:07:15;84786.08;;;26.56;23.22
65134;BME280;51713;40.700;-111.794;2022-07-21T12:09:46;84787.84;;;26.95;23.28
65134;BME280;51713;40.700;-111.794;2022-07-21T12:12:14;84787.83;;;26.95;23.14
65134;BME280;51713;40.700;-111.794;2022-07-21T12:14:45;84789.93;;;27.21;23.24
65134;BME280;51713;40.700;-111.794;2022-07-21T12:17:16;84788.70;;;27.11;22.80
65134;BME280;51713;40.700;-111.794;2022-07-21T12:19:45;84784.72;;;27.27;22.93
65134;BME280;51713;40.700;-111.794;2022-07-21T12:22:13;84785.83;;;27.28;23.17
65134;BME280;51713;40.700;-111.794;2022-07-21T12:24:57;84788.37;;;27.32;22.80
65134;BME280;51713;40.700;-111.794;2022-07-21T12:27:25;84792.45;;;27.19;22.81
65134;BME280;51713;40.700;-111.794;2022-07-21T12:29:54;84797.83;;;27.70;22.65
65134;BME280;51713;40.700;-111.794;2022-07-21T12:32:42;84804.13;;;27.12;22.79
65134;BME280;51713;40.700;-111.794;2022-07-21T12:35:26;84808.89;;;27.25;23.40
65134;BME280;51713;40.700;-111.794;2022-07-21T12:37:58;84809.11;;;27.48;22.94
65134;BME280;51713;40.700;-111.794;2022-07-21T12:40:28;84815.06;;;27.14;22.84
65134;BME280;51713;40.700;-111.794;2022-07-21T12:43:14;84817.37;;;27.23;22.91
65134;BME280;51713;40.700;-111.794;2022-07-21T12:45:49;84819.71;;;27.33;23.06